Belvue, Kansas
Current Conditions -  °F | °C
As of 7:39 AM on Sunday 23 Nov 2014 (Local Time) from KMHK Reporting Station
Light Rain Light Rain  
Wind Chill: 54°   Ceiling: 1300
Heat Index: 54°   Visibility: 1.7mi
Dew Point: 53°   Wind: 3mph
Humidity: 97%   Direction: 230°SW
Pressure: 29.5"   Gusts: NA
Location:  39.22°N, 96.18°W
Report Text: KMHK 231339Z 23003KT 1 3/4SM -RA BR OVC013 12/12 A2950 RMK AO2 P0001 T01220117
Loading
Personal Weather Stations






























Interactive Weather Map New forecast layout! Learn more

10-Day Weather Forecast

Advertisements
Track Severe Weather on mobile